Time;durP1;ratioP1;P1;durP2;ratioP2;P2;SDS_P1;SDS_P2;PMS_P1;PMS_P2;Temp;Humidity;BMP_temperature;BMP_pressure;BME280_temperature;BME280_humidity;BME280_pressure;Samples;Min_cycle;Max_cycle;Signal;HPM_P1;HPM_P2
2022/07/30 00:01:54;;;;;;;1.57;1.47;;;27.10;38.60;;;;;;5076995;28;20424;-78
2022/07/30 00:04:23;;;;;;;1.37;1.37;;;27.10;38.70;;;;;;5076901;28;20462;-78
2022/07/30 00:06:50;;;;;;;1.90;1.40;;;27.10;38.80;;;;;;5079261;28;20548;-78
2022/07/30 00:09:18;;;;;;;1.70;1.60;;;27.00;38.80;;;;;;5077008;28;20495;-78
2022/07/30 00:11:46;;;;;;;2.70;1.80;;;27.00;38.80;;;;;;5075233;28;20445;-79
2022/07/30 00:14:14;;;;;;;1.70;1.60;;;26.90;38.80;;;;;;5078214;28;20431;-79
2022/07/30 00:16:41;;;;;;;1.80;1.70;;;26.90;38.90;;;;;;5077107;28;20400;-80
2022/07/30 00:19:11;;;;;;;2.10;1.30;;;26.90;38.90;;;;;;5079329;28;20439;-81
2022/07/30 00:21:39;;;;;;;1.90;1.80;;;26.90;39.00;;;;;;5080528;28;20417;-82
2022/07/30 00:24:09;;;;;;;1.80;1.70;;;26.90;39.00;;;;;;5080602;28;20475;-80
2022/07/30 00:26:37;;;;;;;1.70;1.60;;;26.90;39.00;;;;;;5078040;28;20439;-79
2022/07/30 00:29:05;;;;;;;1.50;1.50;;;26.80;39.10;;;;;;5079186;28;20412;-80
2022/07/30 00:31:33;;;;;;;1.70;1.60;;;26.80;39.10;;;;;;5078578;28;20425;-80
2022/07/30 00:34:01;;;;;;;1.50;1.50;;;26.70;39.20;;;;;;5075956;28;20467;-79
2022/07/30 00:36:31;;;;;;;6.00;1.40;;;26.70;39.20;;;;;;5077325;28;20427;-79
2022/07/30 00:38:59;;;;;;;1.77;1.67;;;26.70;39.20;;;;;;5078473;28;20427;-79
2022/07/30 00:41:26;;;;;;;1.60;1.50;;;26.70;39.30;;;;;;5077687;28;20473;-80
2022/07/30 00:43:54;;;;;;;1.70;1.60;;;26.70;39.30;;;;;;5072141;28;20444;-79
2022/07/30 00:46:23;;;;;;;1.97;1.87;;;26.60;39.30;;;;;;5077215;28;20441;-80
2022/07/30 00:48:51;;;;;;;1.40;1.30;;;26.70;39.30;;;;;;5077618;28;20452;-80
2022/07/30 00:51:19;;;;;;;1.43;1.43;;;26.60;39.30;;;;;;5078631;28;20441;-80
2022/07/30 00:53:48;;;;;;;1.83;1.73;;;26.60;39.40;;;;;;5079138;28;20483;-80
2022/07/30 00:56:16;;;;;;;1.80;1.70;;;26.60;39.30;;;;;;5077786;28;20456;-79
2022/07/30 00:58:44;;;;;;;1.70;1.60;;;26.50;39.40;;;;;;5078637;28;20523;-79
2022/07/30 01:01:12;;;;;;;1.33;1.33;;;26.50;39.40;;;;;;5078763;28;20470;-80
2022/07/30 01:03:40;;;;;;;1.23;1.23;;;26.50;39.40;;;;;;5078937;28;20564;-80
2022/07/30 01:06:08;;;;;;;1.80;1.70;;;26.50;39.40;;;;;;5077396;28;20476;-80
2022/07/30 01:08:42;;;;;;;1.60;1.50;;;26.50;39.30;;;;;;5078831;28;20464;-80
2022/07/30 01:11:11;;;;;;;1.70;1.60;;;26.50;39.30;;;;;;5078455;28;20417;-80
2022/07/30 01:13:39;;;;;;;1.40;1.40;;;26.50;39.40;;;;;;5078587;28;20456;-80
2022/07/30 01:16:07;;;;;;;1.50;1.30;;;26.40;39.30;;;;;;5077718;28;20521;-79
2022/07/30 01:21:18;;;;;;;1.77;1.70;;;26.30;39.50;;;;;;5078001;28;20477;-80
2022/07/30 01:23:46;;;;;;;1.60;1.50;;;26.40;39.60;;;;;;5078171;28;20548;-80
2022/07/30 01:26:17;;;;;;;1.57;1.57;;;26.40;39.50;;;;;;5077934;28;20445;-80
2022/07/30 01:28:46;;;;;;;1.73;1.63;;;26.30;39.40;;;;;;5078518;28;20448;-79
2022/07/30 01:31:14;;;;;;;1.67;1.57;;;26.30;39.60;;;;;;5078630;28;20474;-80
2022/07/30 01:33:44;;;;;;;1.30;1.30;;;26.20;39.40;;;;;;5074613;28;20552;-80
2022/07/30 01:36:14;;;;;;;1.70;1.60;;;26.20;39.50;;;;;;5078259;28;20436;-80
2022/07/30 01:38:42;;;;;;;1.90;1.67;;;26.20;39.50;;;;;;5079265;28;20835;-80
2022/07/30 01:41:10;;;;;;;1.70;1.60;;;26.20;39.60;;;;;;5079304;28;20479;-80
2022/07/30 01:43:39;;;;;;;1.50;1.40;;;26.20;39.60;;;;;;5079214;28;20436;-79
2022/07/30 01:46:07;;;;;;;1.93;1.83;;;26.10;39.60;;;;;;5078914;28;20431;-80
2022/07/30 01:48:36;;;;;;;5.70;1.30;;;26.10;39.70;;;;;;5078664;28;20408;-80
2022/07/30 01:51:05;;;;;;;1.70;1.60;;;26.10;39.80;;;;;;5078893;28;20426;-79
2022/07/30 01:53:33;;;;;;;1.53;1.43;;;26.00;39.80;;;;;;5073093;28;20531;-79
2022/07/30 01:56:01;;;;;;;1.67;1.57;;;26.00;40.00;;;;;;5078998;28;20442;-80
2022/07/30 01:58:32;;;;;;;1.77;1.67;;;26.00;39.80;;;;;;5078408;28;20467;-80
2022/07/30 02:01:01;;;;;;;1.67;1.57;;;26.10;40.00;;;;;;5069205;28;20528;-78
2022/07/30 02:03:29;;;;;;;2.80;2.00;;;26.00;39.70;;;;;;5074980;28;20420;-80
2022/07/30 02:06:01;;;;;;;1.50;1.50;;;26.00;39.90;;;;;;5069860;28;20437;-80
2022/07/30 02:08:34;;;;;;;1.80;1.70;;;25.90;39.70;;;;;;5078291;28;20506;-80
2022/07/30 02:11:04;;;;;;;1.70;1.60;;;25.90;39.90;;;;;;5078536;28;20476;-80
2022/07/30 02:13:32;;;;;;;1.60;1.50;;;25.80;39.80;;;;;;5078363;28;20537;-79
2022/07/30 02:16:04;;;;;;;1.30;1.30;;;25.80;39.80;;;;;;5077359;28;20444;-80
2022/07/30 02:18:38;;;;;;;1.80;1.70;;;25.90;40.10;;;;;;5077196;28;20444;-80
2022/07/30 02:21:07;;;;;;;1.63;1.53;;;25.90;39.80;;;;;;5078315;28;20539;-79
2022/07/30 02:23:42;;;;;;;2.00;1.90;;;25.90;39.80;;;;;;5078390;28;20436;-80
2022/07/30 02:26:09;;;;;;;2.23;2.10;;;25.80;39.70;;;;;;5077967;28;20396;-80
2022/07/30 02:28:39;;;;;;;1.80;1.70;;;25.80;39.70;;;;;;5078020;28;20491;-79
2022/07/30 02:31:09;;;;;;;1.60;1.50;;;25.80;39.80;;;;;;5078216;28;20426;-80
2022/07/30 02:33:44;;;;;;;2.10;1.93;;;25.80;39.80;;;;;;5078307;28;20500;-80
2022/07/30 02:36:15;;;;;;;1.47;1.47;;;25.70;39.80;;;;;;5078320;28;20428;-79
2022/07/30 02:38:44;;;;;;;1.90;1.80;;;25.70;39.90;;;;;;5077695;28;20471;-79
2022/07/30 02:41:11;;;;;;;1.40;1.30;;;25.70;39.80;;;;;;5077468;28;20564;-80
2022/07/30 02:43:40;;;;;;;3.63;2.07;;;25.70;39.90;;;;;;5077630;28;20465;-80
2022/07/30 02:46:09;;;;;;;1.53;1.43;;;25.60;39.90;;;;;;5077329;28;20511;-79
2022/07/30 02:48:38;;;;;;;1.80;1.63;;;25.60;40.10;;;;;;5077303;28;20450;-80
2022/07/30 02:51:06;;;;;;;1.83;1.73;;;25.60;39.80;;;;;;5077696;28;20437;-79
2022/07/30 02:53:34;;;;;;;1.57;1.57;;;25.60;40.00;;;;;;5077570;28;20470;-79
2022/07/30 02:56:02;;;;;;;1.73;1.63;;;25.60;39.80;;;;;;5076629;28;20419;-80
2022/07/30 02:58:30;;;;;;;1.67;1.50;;;25.60;39.90;;;;;;5077845;28;20982;-80
2022/07/30 03:00:58;;;;;;;1.80;1.70;;;25.50;39.90;;;;;;5078103;28;20556;-80
2022/07/30 03:03:28;;;;;;;1.60;1.50;;;25.50;39.90;;;;;;5077159;28;20449;-79
2022/07/30 03:05:56;;;;;;;1.80;1.70;;;25.50;40.00;;;;;;5076419;28;20418;-80
2022/07/30 03:08:26;;;;;;;1.73;1.63;;;25.50;39.80;;;;;;5077553;28;20444;-80
2022/07/30 03:10:54;;;;;;;2.33;1.60;;;25.40;40.00;;;;;;5076777;28;20476;-79
2022/07/30 03:13:22;;;;;;;1.60;1.50;;;25.40;40.00;;;;;;5077478;28;20480;-79
2022/07/30 03:15:50;;;;;;;1.60;1.50;;;25.40;40.00;;;;;;5076741;28;20416;-80
2022/07/30 03:18:19;;;;;;;1.90;1.80;;;25.40;40.00;;;;;;5077276;28;20419;-80
2022/07/30 03:20:50;;;;;;;1.70;1.60;;;25.30;40.00;;;;;;5077270;28;20408;-80
2022/07/30 03:23:18;;;;;;;1.90;1.80;;;25.40;40.20;;;;;;5077256;28;20434;-79
2022/07/30 03:25:47;;;;;;;1.60;1.50;;;25.40;40.10;;;;;;5075917;28;20438;-80
2022/07/30 03:28:15;;;;;;;1.90;1.80;;;25.40;40.10;;;;;;5076694;28;20441;-79
2022/07/30 03:30:43;;;;;;;1.30;1.30;;;25.40;40.00;;;;;;5076850;28;20408;-80
2022/07/30 03:33:11;;;;;;;1.90;1.37;;;25.40;39.80;;;;;;5077062;28;20408;-80
2022/07/30 03:35:41;;;;;;;1.87;1.77;;;25.30;39.90;;;;;;5076979;28;20449;-80
2022/07/30 03:38:12;;;;;;;2.23;1.60;;;25.30;40.10;;;;;;5076944;28;20495;-80
2022/07/30 03:40:39;;;;;;;1.57;1.47;;;25.30;40.20;;;;;;5076297;28;20437;-80
2022/07/30 03:43:08;;;;;;;1.80;1.70;;;25.30;40.80;;;;;;5076823;28;20412;-80
2022/07/30 03:45:56;;;;;;;1.80;1.70;;;25.20;40.10;;;;;;5076548;28;20426;-80
2022/07/30 03:48:24;;;;;;;1.57;1.47;;;25.30;40.00;;;;;;5077636;28;20829;-80
2022/07/30 03:50:52;;;;;;;2.17;1.97;;;25.20;39.90;;;;;;5077081;28;20420;-80
2022/07/30 03:53:23;;;;;;;1.87;1.77;;;25.20;40.00;;;;;;5076813;28;20531;-80
2022/07/30 03:55:51;;;;;;;2.30;1.60;;;25.20;40.10;;;;;;5076206;28;20418;-81
2022/07/30 03:58:19;;;;;;;1.50;1.40;;;25.20;40.10;;;;;;5077915;28;20437;-81
2022/07/30 04:00:47;;;;;;;1.57;1.47;;;25.20;40.10;;;;;;5076852;28;20433;-81
2022/07/30 04:03:24;;;;;;;1.80;1.70;;;25.20;40.20;;;;;;5077026;28;20440;-80
2022/07/30 04:05:52;;;;;;;1.30;1.30;;;25.10;40.10;;;;;;5077004;28;20437;-80
2022/07/30 04:08:21;;;;;;;1.40;1.40;;;25.10;40.20;;;;;;5076828;28;20544;-78
2022/07/30 04:10:50;;;;;;;1.60;1.50;;;25.10;40.10;;;;;;5076883;28;20427;-78
2022/07/30 04:13:18;;;;;;;1.70;1.63;;;25.10;40.20;;;;;;5077018;28;20488;-78
2022/07/30 04:15:48;;;;;;;1.60;1.60;;;25.10;40.10;;;;;;5075789;28;20448;-79
2022/07/30 04:18:38;;;;;;;3.30;1.57;;;25.10;40.10;;;;;;5075508;28;20413;-77
2022/07/30 04:21:07;;;;;;;1.60;1.50;;;25.10;40.10;;;;;;5075359;28;20508;-77
2022/07/30 04:23:45;;;;;;;1.77;1.67;;;25.10;40.20;;;;;;5076094;28;20460;-78
2022/07/30 04:26:32;;;;;;;1.70;1.43;;;25.10;40.10;;;;;;5075972;28;20515;-77
2022/07/30 04:29:00;;;;;;;1.97;1.87;;;25.10;40.10;;;;;;5076590;28;20412;-79
2022/07/30 04:31:28;;;;;;;1.70;1.60;;;25.10;40.00;;;;;;5076462;28;20423;-79
2022/07/30 04:33:56;;;;;;;1.70;1.60;;;25.10;40.00;;;;;;5076220;28;20493;-78
2022/07/30 04:36:29;;;;;;;1.50;1.40;;;25.10;40.00;;;;;;5081108;28;20400;-79
2022/07/30 04:38:59;;;;;;;1.60;1.50;;;25.10;40.00;;;;;;5081445;28;20426;-79
2022/07/30 04:41:27;;;;;;;1.80;1.70;;;25.10;39.80;;;;;;5081901;28;20450;-80
2022/07/30 04:44:02;;;;;;;1.43;1.43;;;25.10;39.90;;;;;;5080679;28;20472;-79
2022/07/30 04:46:30;;;;;;;1.60;1.50;;;25.10;39.90;;;;;;5080148;28;20420;-80
2022/07/30 04:48:58;;;;;;;1.80;1.70;;;25.10;39.80;;;;;;5080658;28;20430;-79
2022/07/30 04:51:28;;;;;;;1.77;1.77;;;25.10;39.80;;;;;;5075854;28;20446;-79
2022/07/30 04:53:56;;;;;;;1.50;1.50;;;25.20;39.80;;;;;;5079640;28;20582;-79
2022/07/30 04:56:25;;;;;;;1.47;1.40;;;25.20;39.80;;;;;;5079286;28;20503;-79
2022/07/30 04:58:53;;;;;;;2.40;1.53;;;25.20;39.80;;;;;;5080504;28;20472;-79
2022/07/30 05:01:23;;;;;;;2.10;1.60;;;25.20;39.80;;;;;;5080649;28;20440;-79
2022/07/30 05:04:07;;;;;;;1.47;1.40;;;25.20;39.80;;;;;;5080135;28;20509;-79
2022/07/30 05:06:34;;;;;;;2.17;1.70;;;25.20;39.80;;;;;;5079555;28;20503;-79
2022/07/30 05:09:02;;;;;;;2.20;2.00;;;25.10;39.70;;;;;;5081460;28;20440;-78
2022/07/30 05:11:31;;;;;;;1.70;1.60;;;25.20;39.80;;;;;;5082053;28;20503;-79
2022/07/30 05:13:59;;;;;;;1.37;1.37;;;25.20;39.80;;;;;;5079416;28;20434;-79
2022/07/30 05:16:28;;;;;;;2.00;1.37;;;25.20;39.70;;;;;;5079491;28;20437;-79
2022/07/30 05:18:56;;;;;;;1.90;1.80;;;25.20;39.60;;;;;;5078279;28;20437;-78
2022/07/30 05:21:24;;;;;;;1.60;1.50;;;25.20;39.60;;;;;;5074498;28;20400;-79
2022/07/30 05:23:55;;;;;;;1.50;1.40;;;25.20;39.60;;;;;;5078959;28;20465;-79
2022/07/30 05:26:22;;;;;;;1.63;1.57;;;25.30;39.60;;;;;;5078951;28;20422;-79
2022/07/30 05:28:55;;;;;;;1.17;1.13;;;25.30;39.60;;;;;;5079387;28;20412;-80
2022/07/30 05:31:24;;;;;;;1.57;1.40;;;25.20;39.50;;;;;;5080129;28;20416;-79
2022/07/30 05:33:51;;;;;;;1.70;1.60;;;25.20;39.50;;;;;;5079499;28;20439;-79
2022/07/30 05:36:19;;;;;;;1.73;1.63;;;25.30;39.50;;;;;;5079398;28;20507;-80
2022/07/30 05:38:47;;;;;;;1.50;1.50;;;25.30;39.50;;;;;;5078835;28;20435;-79
2022/07/30 05:41:15;;;;;;;1.63;1.53;;;25.30;39.20;;;;;;5080052;28;20419;-79
2022/07/30 05:44:00;;;;;;;1.40;1.30;;;25.30;39.30;;;;;;5078703;28;20474;-80
2022/07/30 05:46:29;;;;;;;1.60;1.60;;;25.30;39.30;;;;;;5078398;28;20541;-80
2022/07/30 05:48:58;;;;;;;1.60;1.50;;;25.30;39.20;;;;;;5078758;28;20412;-80
2022/07/30 05:51:25;;;;;;;1.30;1.30;;;25.30;39.30;;;;;;5072703;28;20450;-80
2022/07/30 05:53:53;;;;;;;1.40;1.30;;;25.30;39.10;;;;;;5078278;28;20441;-80
2022/07/30 05:56:21;;;;;;;2.67;1.50;;;25.40;39.00;;;;;;5078747;28;20444;-79
2022/07/30 05:58:49;;;;;;;3.10;1.60;;;25.40;39.10;;;;;;5079062;28;20503;-80
2022/07/30 06:01:19;;;;;;;2.33;1.60;;;25.40;39.00;;;;;;5078349;28;20420;-80
2022/07/30 06:03:47;;;;;;;1.50;1.40;;;25.40;39.00;;;;;;5078338;28;20477;-80
2022/07/30 06:06:14;;;;;;;2.13;1.77;;;25.40;38.90;;;;;;5078112;28;20414;-80
2022/07/30 06:08:49;;;;;;;1.77;1.67;;;25.40;38.90;;;;;;5078398;28;20419;-80
2022/07/30 06:11:17;;;;;;;1.33;1.33;;;25.50;38.80;;;;;;5078398;28;20533;-80
2022/07/30 06:13:44;;;;;;;1.60;1.50;;;25.50;38.90;;;;;;5078794;28;20519;-81
2022/07/30 06:16:12;;;;;;;1.60;1.50;;;25.50;38.80;;;;;;5078253;28;20442;-79
2022/07/30 06:18:41;;;;;;;1.43;1.40;;;25.60;38.80;;;;;;5076683;28;20466;-80
2022/07/30 06:21:09;;;;;;;1.63;1.53;;;25.60;38.80;;;;;;5072565;28;20442;-79
2022/07/30 06:23:38;;;;;;;1.60;1.50;;;25.60;38.60;;;;;;5079467;28;20462;-80
2022/07/30 06:26:06;;;;;;;1.57;1.40;;;25.70;38.60;;;;;;5081359;28;20431;-80
2022/07/30 06:28:34;;;;;;;1.77;1.67;;;25.70;38.60;;;;;;5078648;28;20563;-80
2022/07/30 06:31:05;;;;;;;1.50;1.40;;;25.70;38.50;;;;;;5078301;28;20422;-79
2022/07/30 06:33:33;;;;;;;2.10;1.50;;;25.70;38.40;;;;;;5078012;28;20458;-79
2022/07/30 06:36:02;;;;;;;1.37;1.37;;;25.80;39.00;;;;;;5077311;28;20503;-79
2022/07/30 06:38:30;;;;;;;1.50;1.50;;;25.80;38.30;;;;;;5078688;28;20469;-79
2022/07/30 06:40:58;;;;;;;1.73;1.53;;;25.90;38.40;;;;;;5077621;28;20499;-78
2022/07/30 06:43:31;;;;;;;1.60;1.50;;;25.90;38.20;;;;;;5077573;28;20444;-79
2022/07/30 06:45:59;;;;;;;1.50;1.40;;;26.00;38.10;;;;;;5077264;28;20447;-79
2022/07/30 06:48:27;;;;;;;1.83;1.73;;;26.00;38.20;;;;;;5078135;28;20495;-79
2022/07/30 06:50:55;;;;;;;1.90;1.80;;;26.00;38.40;;;;;;5077726;28;20484;-79
2022/07/30 06:53:25;;;;;;;1.67;1.57;;;26.10;38.40;;;;;;5077600;28;20424;-79
2022/07/30 06:55:52;;;;;;;1.60;1.50;;;26.10;38.10;;;;;;5077543;28;20444;-79
2022/07/30 06:58:27;;;;;;;1.50;1.40;;;26.20;38.40;;;;;;5078448;28;20451;-79
2022/07/30 07:00:55;;;;;;;1.70;1.60;;;26.20;38.40;;;;;;5077365;28;20452;-79
2022/07/30 07:03:25;;;;;;;1.97;1.80;;;26.20;38.40;;;;;;5075960;28;20436;-79
2022/07/30 07:06:06;;;;;;;1.70;1.60;;;26.30;38.40;;;;;;5076635;28;20436;-79
2022/07/30 07:08:37;;;;;;;1.57;1.47;;;26.40;38.40;;;;;;5077009;28;20503;-79
2022/07/30 07:11:05;;;;;;;1.70;1.60;;;26.50;38.30;;;;;;5077711;28;20439;-80
2022/07/30 07:13:33;;;;;;;1.53;1.47;;;26.60;38.30;;;;;;5077203;28;20500;-80
2022/07/30 07:16:01;;;;;;;1.83;1.73;;;26.70;38.20;;;;;;5076284;28;20457;-80
2022/07/30 07:18:29;;;;;;;1.57;1.57;;;26.80;38.00;;;;;;5077065;28;20440;-80
2022/07/30 07:20:57;;;;;;;1.67;1.67;;;27.00;38.00;;;;;;5077055;28;20437;-80
2022/07/30 07:23:24;;;;;;;1.50;1.50;;;27.00;37.70;;;;;;5076689;28;20461;-79
2022/07/30 07:26:10;;;;;;;1.57;1.47;;;27.10;37.80;;;;;;5076928;28;20446;-80
2022/07/30 07:28:39;;;;;;;1.43;1.43;;;27.30;37.80;;;;;;5077020;28;20493;-80
2022/07/30 07:31:07;;;;;;;1.50;1.40;;;27.30;37.60;;;;;;5076888;28;20446;-80
2022/07/30 07:33:35;;;;;;;1.60;1.50;;;27.40;37.70;;;;;;5076147;28;20972;-80
2022/07/30 07:36:03;;;;;;;1.63;1.53;;;27.50;37.60;;;;;;5076415;28;20532;-80
2022/07/30 07:38:31;;;;;;;1.90;1.70;;;27.60;37.70;;;;;;5076367;28;20449;-80
2022/07/30 07:40:59;;;;;;;1.73;1.60;;;27.70;37.60;;;;;;5077516;28;20528;-80
2022/07/30 07:43:28;;;;;;;1.40;1.30;;;27.80;37.60;;;;;;5076490;28;20972;-81
2022/07/30 07:45:56;;;;;;;1.97;1.87;;;27.90;37.60;;;;;;5076586;28;20460;-81
2022/07/30 07:48:24;;;;;;;1.60;1.60;;;28.00;37.60;;;;;;5077274;28;20434;-80
2022/07/30 07:50:51;;;;;;;1.60;1.50;;;28.10;37.50;;;;;;5076848;28;20442;-81
2022/07/30 07:53:26;;;;;;;1.67;1.60;;;28.20;37.50;;;;;;5078486;28;20444;-79
2022/07/30 07:55:54;;;;;;;1.80;1.70;;;28.40;37.60;;;;;;5077226;28;20527;-80
2022/07/30 07:58:23;;;;;;;2.17;2.07;;;28.50;37.50;;;;;;5077140;28;20436;-80
2022/07/30 08:00:54;;;;;;;1.70;1.60;;;28.50;37.50;;;;;;5077077;28;20424;-80
2022/07/30 08:03:22;;;;;;;1.77;1.67;;;28.70;37.40;;;;;;5076556;28;20473;-80
2022/07/30 08:05:50;;;;;;;1.80;1.70;;;28.80;37.40;;;;;;5075128;28;20505;-80
2022/07/30 08:08:32;;;;;;;1.67;1.60;;;28.90;37.40;;;;;;5076272;28;20412;-81
2022/07/30 08:11:00;;;;;;;1.80;1.70;;;29.00;37.50;;;;;;5076723;28;20933;-81
2022/07/30 08:13:28;;;;;;;1.53;1.50;;;29.20;37.50;;;;;;5075366;28;20460;-81
2022/07/30 08:16:17;;;;;;;1.70;1.60;;;29.30;37.40;;;;;;5078994;28;20533;-80
2022/07/30 08:18:45;;;;;;;1.90;1.80;;;29.40;37.40;;;;;;5080443;28;20434;-81
2022/07/30 08:21:14;;;;;;;1.77;1.67;;;29.60;37.50;;;;;;5080243;28;20489;-81
2022/07/30 08:23:41;;;;;;;1.90;1.90;;;29.60;37.30;;;;;;5080070;28;20508;-80
2022/07/30 08:26:10;;;;;;;1.83;1.73;;;29.80;37.30;;;;;;5086534;28;20520;-81
2022/07/30 08:28:38;;;;;;;1.70;1.60;;;29.90;37.20;;;;;;5080589;28;20473;-81
2022/07/30 08:31:06;;;;;;;1.53;1.43;;;30.00;37.20;;;;;;5082307;28;20445;-80
2022/07/30 08:33:37;;;;;;;1.80;1.70;;;30.20;37.20;;;;;;5081932;28;20472;-82
2022/07/30 08:36:11;;;;;;;1.93;1.83;;;30.30;37.10;;;;;;5080700;28;20453;-81
2022/07/30 08:38:39;;;;;;;1.50;1.50;;;30.50;37.10;;;;;;5082257;28;20475;-81
2022/07/30 08:41:07;;;;;;;1.67;1.57;;;30.60;37.00;;;;;;5082404;28;20441;-82
2022/07/30 08:43:36;;;;;;;1.73;1.63;;;30.70;37.00;;;;;;5080740;28;20469;-82
2022/07/30 08:46:05;;;;;;;1.70;1.60;;;30.90;37.00;;;;;;5081095;28;20449;-82
2022/07/30 08:48:33;;;;;;;1.77;1.67;;;31.00;36.80;;;;;;5080090;28;20533;-81
2022/07/30 08:51:02;;;;;;;1.90;1.80;;;31.20;36.90;;;;;;5079771;28;20445;-81
2022/07/30 08:53:32;;;;;;;1.53;1.40;;;31.30;36.80;;;;;;5080311;28;20533;-80
2022/07/30 08:56:00;;;;;;;1.90;1.80;;;31.50;36.70;;;;;;5078309;28;20548;-78
2022/07/30 08:58:29;;;;;;;1.50;1.40;;;31.60;36.70;;;;;;5079327;28;20477;-79
2022/07/30 09:00:57;;;;;;;4.10;1.60;;;31.80;36.50;;;;;;5078673;28;20458;-79
2022/07/30 09:03:25;;;;;;;1.97;1.70;;;32.00;36.60;;;;;;5080094;28;20524;-81
2022/07/30 09:05:54;;;;;;;1.73;1.73;;;32.10;36.50;;;;;;5079805;28;20504;-81
2022/07/30 09:08:23;;;;;;;1.60;1.60;;;32.30;36.50;;;;;;5079527;28;20506;-80
2022/07/30 09:10:51;;;;;;;1.40;1.40;;;32.40;36.40;;;;;;5078692;28;20532;-79
2022/07/30 09:13:24;;;;;;;2.00;1.90;;;32.60;36.30;;;;;;5077439;28;20441;-79
2022/07/30 09:15:52;;;;;;;1.90;1.80;;;32.70;36.20;;;;;;5076876;28;20501;-80
2022/07/30 09:18:27;;;;;;;1.73;1.63;;;32.90;36.20;;;;;;5078335;28;20473;-80
2022/07/30 09:20:55;;;;;;;1.50;1.40;;;33.10;36.10;;;;;;5089327;28;20552;-79
2022/07/30 09:23:24;;;;;;;1.40;1.40;;;33.20;36.00;;;;;;5096869;28;20965;-80
2022/07/30 09:25:53;;;;;;;1.70;1.60;;;33.40;35.90;;;;;;5096934;28;20503;-80
2022/07/30 09:28:28;;;;;;;1.30;1.30;;;33.50;35.80;;;;;;5098542;28;20449;-80
2022/07/30 09:30:56;;;;;;;3.90;1.60;;;33.70;35.70;;;;;;5098487;28;20454;-79
2022/07/30 09:33:35;;;;;;;2.63;1.70;;;33.90;35.60;;;;;;5098115;28;20528;-79
2022/07/30 09:36:04;;;;;;;1.70;1.60;;;34.00;35.50;;;;;;5097899;28;20539;-80
2022/07/30 09:38:43;;;;;;;5.73;1.30;;;34.20;35.40;;;;;;5097745;28;20893;-80
2022/07/30 09:41:11;;;;;;;4.37;1.40;;;34.40;35.40;;;;;;5098286;28;20942;-80
2022/07/30 09:43:59;;;;;;;1.60;1.50;;;34.50;35.20;;;;;;5098630;28;20468;-80
2022/07/30 09:46:41;;;;;;;1.63;1.53;;;34.70;35.10;;;;;;5098477;28;20445;-79
2022/07/30 09:49:13;;;;;;;1.50;1.40;;;34.90;35.00;;;;;;5104240;28;20433;-81
2022/07/30 09:51:41;;;;;;;1.90;1.43;;;35.10;35.00;;;;;;5106571;28;20428;-80
2022/07/30 09:54:25;;;;;;;1.73;1.60;;;35.20;34.90;;;;;;5101643;28;20449;-79
2022/07/30 09:57:05;;;;;;;1.50;1.40;;;35.40;34.80;;;;;;5098162;28;20505;-80
2022/07/30 09:59:49;;;;;;;1.50;1.50;;;35.50;34.60;;;;;;5098049;28;20444;-80
2022/07/30 10:02:17;;;;;;;1.70;1.50;;;35.70;34.50;;;;;;5098294;28;20447;-80
2022/07/30 10:04:45;;;;;;;1.60;1.50;;;36.00;34.40;;;;;;5098238;28;20536;-80
2022/07/30 10:07:20;;;;;;;3.80;1.50;;;36.20;34.30;;;;;;5098082;28;20429;-80
2022/07/30 10:09:53;;;;;;;2.20;1.30;;;36.30;34.20;;;;;;5098209;28;20429;-80
2022/07/30 10:12:21;;;;;;;1.60;1.50;;;36.50;34.10;;;;;;5097645;28;20480;-79
2022/07/30 10:14:52;;;;;;;1.10;1.10;;;36.70;33.90;;;;;;5098469;28;20845;-79
2022/07/30 10:17:20;;;;;;;3.57;1.70;;;36.80;33.80;;;;;;5097850;28;20520;-79
2022/07/30 10:19:48;;;;;;;2.00;1.27;;;37.00;33.60;;;;;;5098146;28;20460;-80
2022/07/30 10:22:16;;;;;;;2.20;1.60;;;37.20;33.60;;;;;;5098359;28;20460;-79
2022/07/30 10:24:44;;;;;;;1.53;1.30;;;37.30;33.40;;;;;;5097966;28;20482;-80
2022/07/30 10:27:13;;;;;;;1.43;1.40;;;37.50;33.30;;;;;;5097051;28;20468;-80
2022/07/30 10:29:41;;;;;;;1.43;1.43;;;37.70;33.10;;;;;;5096497;28;20509;-80
2022/07/30 10:32:09;;;;;;;1.40;1.30;;;37.90;33.00;;;;;;5097103;28;20436;-80
2022/07/30 10:34:37;;;;;;;7.60;1.50;;;38.10;32.80;;;;;;5096864;28;20567;-79
2022/07/30 10:37:09;;;;;;;1.13;1.13;;;38.40;32.70;;;;;;5095805;28;20483;-80
2022/07/30 10:39:43;;;;;;;1.10;1.10;;;38.60;32.40;;;;;;5096309;28;20468;-79
2022/07/30 10:42:21;;;;;;;1.27;1.20;;;38.80;32.20;;;;;;5097353;28;20466;-78
2022/07/30 10:44:56;;;;;;;1.00;1.00;;;39.00;32.00;;;;;;5098880;28;20469;-80
2022/07/30 10:47:26;;;;;;;1.57;1.47;;;39.30;31.90;;;;;;5098143;28;20506;-79
2022/07/30 10:50:10;;;;;;;1.50;1.40;;;39.40;31.60;;;;;;5097358;28;20487;-80
2022/07/30 10:52:46;;;;;;;2.73;1.40;;;39.70;31.60;;;;;;5097228;28;20520;-79
2022/07/30 10:55:14;;;;;;;1.60;1.50;;;39.90;31.30;;;;;;5095995;28;20529;-80
2022/07/30 11:10:58;;;;;;;1.13;1.13;;;40.20;31.20;;;;;;5129866;27;20554;-80
2022/07/30 11:13:53;;;;;;;1.07;1.07;;;41.70;29.90;;;;;;5129076;27;20451;-77
2022/07/30 11:16:22;;;;;;;1.07;1.07;;;41.90;29.70;;;;;;5128739;27;20976;-78
2022/07/30 11:19:04;;;;;;;1.10;1.10;;;42.10;29.60;;;;;;5129274;27;20471;-80
2022/07/30 11:22:24;;;;;;;1.10;1.10;;;42.00;29.20;;;;;;5129324;28;20446;-79
2022/07/30 11:24:52;;;;;;;1.03;1.00;;;42.00;29.30;;;;;;5128789;27;20472;-78
2022/07/30 11:27:39;;;;;;;1.33;1.20;;;41.70;29.50;;;;;;5129717;27;20430;-80
2022/07/30 11:30:33;;;;;;;1.30;1.30;;;41.40;29.60;;;;;;5129379;27;20517;-80
2022/07/30 11:33:23;;;;;;;4.03;1.20;;;42.60;29.40;;;;;;5129175;27;20458;-77
2022/07/30 11:36:06;;;;;;;1.20;1.20;;;44.40;28.00;;;;;;5127895;28;20457;-80
2022/07/30 11:38:53;;;;;;;1.00;1.00;;;43.70;27.30;;;;;;5128538;27;20498;-77
2022/07/30 11:41:21;;;;;;;0.90;0.90;;;44.20;28.20;;;;;;5128264;28;20514;-79
2022/07/30 11:44:05;;;;;;;1.10;1.00;;;45.80;26.80;;;;;;5128205;27;20462;-78
2022/07/30 11:46:33;;;;;;;1.03;1.03;;;46.30;25.10;;;;;;5127085;28;20435;-79
2022/07/30 11:49:07;;;;;;;1.00;1.00;;;44.90;26.10;;;;;;5128660;27;20849;-78
2022/07/30 11:51:39;;;;;;;0.90;0.90;;;44.50;27.60;;;;;;5128128;27;20505;-78
2022/07/30 11:54:09;;;;;;;0.90;0.90;;;46.20;26.50;;;;;;5129180;27;20453;-79
2022/07/30 11:56:37;;;;;;;0.90;0.90;;;46.70;24.60;;;;;;5127915;27;20517;-80
2022/07/30 11:59:07;;;;;;;1.00;0.90;;;45.30;25.60;;;;;;5128741;27;20517;-79
2022/07/30 12:01:35;;;;;;;1.10;1.10;;;44.70;26.90;;;;;;5128273;27;20427;-78
2022/07/30 12:04:03;;;;;;;1.10;1.10;;;44.30;26.40;;;;;;5128143;27;20454;-79
2022/07/30 12:06:32;;;;;;;1.13;1.00;;;45.20;27.10;;;;;;5128122;27;20435;-79
2022/07/30 12:09:00;;;;;;;0.90;0.90;;;46.80;25.80;;;;;;5129744;27;20438;-79
2022/07/30 12:11:31;;;;;;;0.90;0.90;;;47.20;24.30;;;;;;5117834;27;20416;-78
2022/07/30 12:14:00;;;;;;;1.00;1.00;;;45.80;25.00;;;;;;5114534;28;20530;-78
2022/07/30 12:16:30;;;;;;;0.97;0.97;;;44.50;26.00;;;;;;5115620;28;20889;-80
2022/07/30 12:19:01;;;;;;;0.90;0.90;;;43.50;26.80;;;;;;5116136;28;20435;-80
2022/07/30 12:21:29;;;;;;;1.13;1.03;;;42.70;27.50;;;;;;5116499;28;20454;-79
2022/07/30 12:23:58;;;;;;;1.00;1.00;;;42.20;28.00;;;;;;5114259;28;20470;-80
2022/07/30 12:26:27;;;;;;;1.07;0.97;;;43.80;27.80;;;;;;5113807;28;20443;-79
2022/07/30 12:28:56;;;;;;;0.90;0.90;;;45.60;26.10;;;;;;5114560;28;20530;-81
2022/07/30 12:31:24;;;;;;;1.00;1.00;;;45.00;26.00;;;;;;5114219;28;20455;-80
2022/07/30 12:33:55;;;;;;;1.13;1.13;;;45.70;24.90;;;;;;5113985;28;20535;-80
2022/07/30 12:36:30;;;;;;;1.00;1.00;;;46.30;25.70;;;;;;5114252;28;20443;-82
2022/07/30 12:38:58;;;;;;;0.80;0.80;;;46.50;24.80;;;;;;5114309;28;20937;-79
2022/07/30 12:41:42;;;;;;;0.90;0.90;;;45.50;25.40;;;;;;5113757;28;20514;-79
2022/07/30 12:44:09;;;;;;;0.90;0.90;;;44.90;25.60;;;;;;5113477;28;20473;-79
2022/07/30 12:46:38;;;;;;;0.90;0.90;;;44.10;26.30;;;;;;5112835;28;20528;-80
2022/07/30 12:49:08;;;;;;;1.00;1.00;;;43.60;26.90;;;;;;5113644;28;20475;-79
2022/07/30 12:51:53;;;;;;;1.30;1.20;;;44.10;26.50;;;;;;5113779;28;20431;-77
2022/07/30 12:54:27;;;;;;;1.10;1.10;;;45.00;25.30;;;;;;5113393;28;20454;-77
2022/07/30 12:56:59;;;;;;;1.30;1.30;;;43.90;26.10;;;;;;5112304;28;20797;-79
2022/07/30 12:59:27;;;;;;;1.20;1.20;;;43.00;27.00;;;;;;5113470;28;20467;-79
2022/07/30 13:01:56;;;;;;;1.07;1.07;;;43.50;27.00;;;;;;5112829;28;20431;-78
2022/07/30 13:04:25;;;;;;;1.00;1.00;;;42.80;27.00;;;;;;5114423;28;20496;-80
2022/07/30 13:07:09;;;;;;;1.43;1.43;;;42.20;27.50;;;;;;5114452;28;20444;-79
2022/07/30 13:09:37;;;;;;;1.03;1.03;;;42.20;28.60;;;;;;5116094;28;20511;-80
2022/07/30 13:12:05;;;;;;;1.27;1.27;;;43.80;27.00;;;;;;5116604;28;20503;-80
2022/07/30 13:14:34;;;;;;;1.00;1.00;;;44.80;25.60;;;;;;5116535;28;20484;-80
2022/07/30 13:17:02;;;;;;;1.20;1.20;;;43.70;26.00;;;;;;5115347;28;20454;-79
2022/07/30 13:19:32;;;;;;;1.20;1.20;;;42.80;26.80;;;;;;5115359;28;20486;-80
2022/07/30 13:22:01;;;;;;;0.90;0.90;;;42.10;27.70;;;;;;5114086;28;20438;-80